Time;durP1;ratioP1;P1;durP2;ratioP2;P2;SDS_P1;SDS_P2;PMS_P1;PMS_P2;Temp;Humidity;BMP_temperature;BMP_pressure;BME280_temperature;BME280_humidity;BME280_pressure;Samples;Min_cycle;Max_cycle;Signal;HPM_P1;HPM_P2
2023/12/28 00:01:03;;;;;;;0.93;0.93;;;;;;;5.56;83.12;100264.91;5074169;28;20048;-66
2023/12/28 00:03:32;;;;;;;1.85;1.33;;;;;;;5.57;83.37;100261.53;5072462;28;20282;-66
2023/12/28 00:06:01;;;;;;;1.60;1.50;;;;;;;5.59;83.30;100254.88;5074062;28;20482;-66
2023/12/28 00:08:32;;;;;;;2.42;1.40;;;;;;;5.58;83.66;100255.66;5072533;28;20529;-66
2023/12/28 00:11:02;;;;;;;1.77;1.30;;;;;;;5.57;83.55;100259.00;5074106;28;20056;-66
2023/12/28 00:13:31;;;;;;;1.42;1.33;;;;;;;5.57;83.48;100256.47;5073579;28;20045;-66
2023/12/28 00:16:00;;;;;;;1.13;1.13;;;;;;;5.58;83.27;100258.19;5073700;28;20487;-66
2023/12/28 00:18:29;;;;;;;1.38;1.27;;;;;;;5.59;83.79;100255.69;5074232;28;20039;-65
2023/12/28 00:20:58;;;;;;;1.42;1.33;;;;;;;5.56;83.33;100249.72;5073739;28;20509;-66
2023/12/28 00:23:27;;;;;;;0.75;0.75;;;;;;;5.56;83.51;100249.72;5073802;28;20098;-66
2023/12/28 00:25:56;;;;;;;0.82;0.82;;;;;;;5.54;83.26;100253.88;5074090;28;20025;-66
2023/12/28 00:28:26;;;;;;;1.73;1.30;;;;;;;5.52;83.33;100256.34;5073810;28;20032;-65
2023/12/28 00:30:55;;;;;;;0.80;0.80;;;;;;;5.48;83.57;100253.69;5073802;28;20291;-66
2023/12/28 00:33:24;;;;;;;1.65;1.55;;;;;;;5.46;83.21;100250.25;5073348;28;20406;-66
2023/12/28 00:35:53;;;;;;;3.72;3.13;;;;;;;5.45;83.44;100246.03;5072205;28;20047;-65
2023/12/28 00:38:21;;;;;;;3.40;2.00;;;;;;;5.43;83.16;100244.28;5072455;28;20131;-65
2023/12/28 00:40:51;;;;;;;2.45;2.28;;;;;;;5.42;83.41;100247.63;5072222;28;20048;-65
2023/12/28 00:43:19;;;;;;;1.48;1.38;;;;;;;5.38;83.60;100245.84;5073555;28;20044;-65
2023/12/28 00:45:50;;;;;;;5.87;4.03;;;;;;;5.38;83.15;100245.84;5073651;28;20084;-66
2023/12/28 00:48:19;;;;;;;16.35;1.92;;;;;;;5.37;83.60;100245.81;5073569;28;20070;-65
2023/12/28 00:50:48;;;;;;;0.90;0.90;;;;;;;5.35;83.65;100253.31;5072872;28;20479;-66
2023/12/28 00:53:17;;;;;;;6.13;5.82;;;;;;;5.23;83.25;100245.38;5072034;28;20040;-66
2023/12/28 00:55:45;;;;;;;3.10;2.10;;;;;;;5.29;83.47;100254.81;5073167;28;20040;-65
2023/12/28 00:58:14;;;;;;;1.05;0.98;;;;;;;5.28;83.91;100255.63;5073490;28;20449;-65
2023/12/28 01:00:43;;;;;;;1.02;1.00;;;;;;;5.20;83.51;100252.91;5072575;28;20092;-65
2023/12/28 01:06:54;;;;;;;8.40;2.08;;;;;;;5.13;83.74;100258.59;5073326;28;20586;-66
2023/12/28 01:09:24;;;;;;;1.55;1.45;;;;;;;5.16;83.88;100263.72;5073412;28;20077;-66
2023/12/28 01:11:53;;;;;;;0.30;0.30;;;;;;;5.15;83.40;100256.09;5073815;28;20048;-66
2023/12/28 01:14:22;;;;;;;1.47;1.37;;;;;;;5.14;83.86;100262.81;5072838;28;20056;-66
2023/12/28 01:16:51;;;;;;;1.80;1.67;;;;;;;5.13;83.88;100263.66;5073290;28;20127;-64
2023/12/28 01:19:19;;;;;;;0.57;0.57;;;;;;;5.05;83.85;100257.50;5088926;28;20063;-64
2023/12/28 01:21:50;;;;;;;2.05;1.95;;;;;;;4.97;83.82;100256.38;5073324;28;20056;-64
2023/12/28 01:24:22;;;;;;;0.93;0.93;;;;;;;4.89;83.55;100257.84;5072959;28;20040;-64
2023/12/28 01:26:51;;;;;;;1.88;1.77;;;;;;;4.85;83.64;100250.94;5071753;28;20059;-65
2023/12/28 01:29:20;;;;;;;0.90;0.90;;;;;;;4.85;83.59;100256.00;5072021;28;20059;-65
2023/12/28 01:31:49;;;;;;;1.20;1.00;;;;;;;4.83;83.62;100252.56;5072810;28;20458;-66
2023/12/28 01:34:18;;;;;;;1.27;1.17;;;;;;;4.72;83.66;100248.88;5076765;28;20498;-64
2023/12/28 01:36:46;;;;;;;0.70;0.70;;;;;;;4.65;83.88;100252.00;5075723;28;20033;-65
2023/12/28 01:39:18;;;;;;;0.40;0.40;;;;;;;4.61;83.62;100250.19;5076593;28;20075;-65
2023/12/28 01:41:48;;;;;;;1.55;1.45;;;;;;;4.63;83.89;100254.47;5076861;28;20045;-65
2023/12/28 01:44:17;;;;;;;1.42;1.33;;;;;;;4.61;84.04;100246.00;5076835;28;20053;-64
2023/12/28 01:46:47;;;;;;;0.60;0.60;;;;;;;4.58;83.99;100240.00;5075178;28;20040;-66
2023/12/28 01:49:16;;;;;;;1.02;0.98;;;;;;;4.49;83.63;100245.59;5076897;28;20041;-64
2023/12/28 01:51:46;;;;;;;3.65;2.05;;;;;;;4.49;83.85;100239.66;5092606;28;20068;-65
2023/12/28 01:54:16;;;;;;;2.42;1.30;;;;;;;4.51;84.00;100248.19;5075211;28;20029;-66
2023/12/28 01:56:45;;;;;;;0.98;0.95;;;;;;;4.39;83.81;100230.09;5076461;28;20048;-65
2023/12/28 01:59:16;;;;;;;0.70;0.70;;;;;;;4.37;83.72;100247.72;5075307;28;20470;-67
2023/12/28 02:01:46;;;;;;;0.75;0.75;;;;;;;4.34;83.92;100234.16;5075672;28;20440;-67
2023/12/28 02:04:14;;;;;;;;;;;;;;;4.33;83.96;100229.88;5076881;28;20055;-65
2023/12/28 02:06:43;;;;;;;1.60;1.50;;;;;;;4.23;84.64;100216.09;5074849;28;19966;-66
2023/12/28 02:09:12;;;;;;;2.05;1.20;;;;;;;4.22;84.21;100216.91;5076077;28;20132;-65
2023/12/28 02:11:41;;;;;;;0.55;0.55;;;;;;;4.17;84.19;100215.91;5075009;28;20045;-64
2023/12/28 02:14:10;;;;;;;1.03;1.03;;;;;;;4.18;84.41;100196.53;5076248;28;20048;-66
2023/12/28 02:16:45;;;;;;;6.68;1.92;;;;;;;4.19;84.95;100201.66;5076137;28;20048;-66
2023/12/28 02:19:26;;;;;;;0.77;0.77;;;;;;;4.22;85.24;100201.78;5075035;28;20094;-65
2023/12/28 02:21:57;;;;;;;0.50;0.50;;;;;;;4.21;85.15;100197.50;5074729;28;20075;-66
2023/12/28 02:24:26;;;;;;;0.45;0.45;;;;;;;4.19;85.09;100189.03;5074956;28;20064;-65
2023/12/28 02:26:57;;;;;;;0.82;0.82;;;;;;;4.20;85.00;100190.72;5075767;28;20479;-66
2023/12/28 02:29:26;;;;;;;1.98;1.80;;;;;;;4.13;85.38;100187.97;5076317;28;20092;-65
2023/12/28 02:32:02;;;;;;;1.25;1.15;;;;;;;4.13;85.55;100185.44;5076168;28;20541;-65
2023/12/28 02:34:38;;;;;;;1.17;1.15;;;;;;;4.14;85.71;100194.72;5074483;28;20033;-65
2023/12/28 02:37:08;;;;;;;0.63;0.63;;;;;;;4.10;85.90;100177.75;5074890;28;20044;-66
2023/12/28 02:39:39;;;;;;;2.33;2.15;;;;;;;4.09;85.77;100181.94;5075757;28;20048;-66
2023/12/28 02:42:09;;;;;;;1.60;1.30;;;;;;;4.08;85.75;100188.66;5075726;28;20139;-66
2023/12/28 02:44:39;;;;;;;2.47;2.28;;;;;;;4.07;85.84;100184.44;5074546;28;20044;-67
2023/12/28 02:47:10;;;;;;;0.60;0.60;;;;;;;4.07;85.87;100176.88;5075330;28;20056;-66
2023/12/28 02:49:39;;;;;;;0.65;0.65;;;;;;;4.07;85.87;100171.81;5075609;28;20050;-65
2023/12/28 02:52:07;;;;;;;1.15;0.75;;;;;;;4.07;85.67;100159.19;5075560;28;20040;-66
2023/12/28 02:54:36;;;;;;;0.80;0.80;;;;;;;4.02;85.93;100157.31;5075262;28;20063;-66
2023/12/28 02:57:05;;;;;;;0.77;0.77;;;;;;;4.00;85.90;100151.34;5075502;28;20558;-66
2023/12/28 02:59:36;;;;;;;0.50;0.50;;;;;;;3.96;85.87;100154.56;5075496;28;20394;-66
2023/12/28 03:02:05;;;;;;;0.70;0.70;;;;;;;3.91;86.03;100151.06;5074195;28;20135;-65
2023/12/28 03:04:34;;;;;;;1.30;1.20;;;;;;;3.88;86.41;100154.34;5075846;28;20067;-67
2023/12/28 03:07:03;;;;;;;0.37;0.37;;;;;;;3.80;85.74;100153.22;5075433;28;20040;-64
2023/12/28 03:09:31;;;;;;;0.50;0.50;;;;;;;3.79;86.00;100164.09;5075416;28;20213;-66
2023/12/28 03:12:00;;;;;;;0.65;0.65;;;;;;;3.80;86.17;100162.44;5074182;28;20043;-66
2023/12/28 03:14:28;;;;;;;4.90;1.85;;;;;;;3.82;86.46;100169.25;5075656;28;20043;-66
2023/12/28 03:16:58;;;;;;;0.65;0.65;;;;;;;3.84;86.51;100180.25;5073741;28;20039;-66
2023/12/28 03:19:27;;;;;;;2.25;1.33;;;;;;;3.80;86.09;100168.34;5073906;28;20142;-65
2023/12/28 03:21:56;;;;;;;4.35;2.40;;;;;;;3.79;86.60;100166.63;5074339;28;20115;-67
2023/12/28 03:24:25;;;;;;;1.23;1.23;;;;;;;3.72;86.38;100169.75;5074938;28;20044;-67
2023/12/28 03:26:54;;;;;;;2.03;1.92;;;;;;;3.71;85.99;100165.53;5074741;28;20040;-65
2023/12/28 03:29:22;;;;;;;0.73;0.60;;;;;;;3.73;86.18;100156.34;5074648;28;20048;-65
2023/12/28 03:31:51;;;;;;;1.48;1.38;;;;;;;3.72;85.99;100154.59;5075290;28;20479;-67
2023/12/28 03:34:22;;;;;;;3.07;2.77;;;;;;;3.69;86.07;100159.56;5073815;28;20392;-65
2023/12/28 03:36:51;;;;;;;0.57;0.57;;;;;;;3.73;86.35;100171.47;5073409;28;20097;-67
2023/12/28 03:39:20;;;;;;;1.05;1.02;;;;;;;3.72;86.44;100168.91;5073552;28;20044;-66
2023/12/28 03:41:49;;;;;;;2.67;2.47;;;;;;;3.63;86.41;100168.56;5075080;28;20060;-67
2023/12/28 03:44:18;;;;;;;1.00;1.00;;;;;;;3.63;86.72;100171.09;5074701;28;20044;-65
2023/12/28 03:46:47;;;;;;;1.00;0.93;;;;;;;3.60;86.36;100159.22;5074472;28;20036;-67
2023/12/28 03:49:17;;;;;;;1.40;1.30;;;;;;;3.52;86.59;100154.75;5073358;28;20036;-66
2023/12/28 03:51:50;;;;;;;0.60;0.60;;;;;;;3.44;86.55;100157.00;5074970;28;20047;-67
2023/12/28 03:54:19;;;;;;;1.42;1.33;;;;;;;3.46;86.18;100164.59;5073814;28;20120;-67
2023/12/28 03:56:48;;;;;;;0.90;0.85;;;;;;;3.49;86.46;100169.75;5073523;28;20047;-67
2023/12/28 03:59:17;;;;;;;3.45;1.23;;;;;;;3.45;86.86;100166.28;5073613;28;20033;-67
2023/12/28 04:01:47;;;;;;;0.93;0.93;;;;;;;3.41;86.59;100159.41;5073769;28;20045;-65
2023/12/28 04:04:18;;;;;;;0.68;0.68;;;;;;;3.42;86.69;100153.56;5074745;28;20068;-67
2023/12/28 04:06:49;;;;;;;0.60;0.60;;;;;;;3.39;86.33;100155.97;5072955;28;20040;-67
2023/12/28 04:09:19;;;;;;;1.10;1.00;;;;;;;3.34;86.05;100149.91;5073143;28;20053;-67
2023/12/28 04:11:48;;;;;;;1.27;1.23;;;;;;;3.28;86.69;100154.75;5073032;28;20045;-65
2023/12/28 04:14:17;;;;;;;0.85;0.85;;;;;;;3.27;86.65;100147.97;5073478;28;20428;-66
2023/12/28 04:16:46;;;;;;;0.50;0.50;;;;;;;3.29;86.45;100157.31;5072885;28;20094;-66
2023/12/28 04:19:14;;;;;;;0.97;0.93;;;;;;;3.32;86.60;100159.94;5074060;28;20404;-65
2023/12/28 04:21:49;;;;;;;1.70;1.60;;;;;;;3.30;86.49;100169.13;5073126;28;20090;-66
2023/12/28 04:24:18;;;;;;;2.88;1.90;;;;;;;3.22;85.96;100169.63;5072923;28;20441;-65
2023/12/28 04:26:47;;;;;;;1.67;1.58;;;;;;;3.23;86.45;100171.38;5089447;28;20032;-67
2023/12/28 04:29:16;;;;;;;1.58;1.48;;;;;;;3.09;85.82;100162.44;5073996;28;20037;-64
2023/12/28 04:31:45;;;;;;;2.20;2.00;;;;;;;2.99;86.11;100165.44;5073570;28;20487;-65
2023/12/28 04:34:14;;;;;;;;;;;;;;;3.00;86.34;100174.72;5072733;28;20045;-65
2023/12/28 04:36:44;;;;;;;0.57;0.57;;;;;;;2.87;86.38;100175.94;5073745;28;19952;-64
2023/12/28 04:39:17;;;;;;;0.50;0.50;;;;;;;2.83;86.31;100180.78;5074166;28;20048;-66
2023/12/28 04:41:47;;;;;;;1.67;1.17;;;;;;;2.82;86.36;100182.44;5074061;28;20433;-65
2023/12/28 04:44:15;;;;;;;0.80;0.80;;;;;;;2.77;86.13;100178.91;5072334;28;20491;-65
2023/12/28 04:46:46;;;;;;;1.25;1.15;;;;;;;2.83;86.08;100178.28;5073528;28;20285;-65
2023/12/28 04:49:15;;;;;;;0.88;0.88;;;;;;;2.92;86.17;100176.09;5073752;28;20386;-65
2023/12/28 04:51:45;;;;;;;2.45;1.30;;;;;;;2.85;86.32;100167.44;5073702;28;20043;-66
2023/12/28 04:54:14;;;;;;;0.70;0.68;;;;;;;2.82;86.33;100171.50;5072851;28;20116;-67
2023/12/28 04:56:45;;;;;;;1.88;1.65;;;;;;;2.77;85.68;100167.94;5073704;28;20080;-66
2023/12/28 04:59:14;;;;;;;1.35;1.25;;;;;;;2.75;86.47;100185.53;5072519;28;20044;-66
2023/12/28 05:01:43;;;;;;;2.08;1.60;;;;;;;2.71;86.09;100182.03;5072243;28;20127;-65
2023/12/28 05:04:12;;;;;;;0.47;0.47;;;;;;;2.59;86.25;100184.06;5073615;28;20040;-65
2023/12/28 05:06:45;;;;;;;1.08;1.08;;;;;;;2.54;85.88;100180.50;5073242;28;20449;-65
2023/12/28 05:09:14;;;;;;;0.45;0.45;;;;;;;2.60;86.63;100180.78;5077392;28;20517;-65
2023/12/28 05:11:45;;;;;;;3.40;2.38;;;;;;;2.54;85.68;100178.00;5059692;28;20419;-66
2023/12/28 05:14:14;;;;;;;0.60;0.50;;;;;;;2.48;85.76;100180.28;5076060;28;20040;-66
2023/12/28 05:16:43;;;;;;;1.55;0.95;;;;;;;2.40;86.59;100186.69;5077646;28;20040;-65
2023/12/28 05:19:11;;;;;;;3.00;0.95;;;;;;;2.42;86.61;100194.31;5077814;28;20437;-65
2023/12/28 05:21:41;;;;;;;0.70;0.70;;;;;;;2.39;86.17;100195.03;5077730;28;20068;-66
2023/12/28 05:24:10;;;;;;;0.95;0.95;;;;;;;2.41;86.45;100197.63;5077054;28;20044;-66
2023/12/28 05:26:39;;;;;;;1.75;1.05;;;;;;;2.37;86.06;100196.66;5077631;28;20099;-66
2023/12/28 05:29:09;;;;;;;0.77;0.77;;;;;;;2.39;86.75;100205.13;5077137;28;20482;-66
2023/12/28 05:31:38;;;;;;;1.48;1.38;;;;;;;2.39;86.70;100205.13;5077053;28;20098;-66
2023/12/28 05:34:07;;;;;;;1.70;1.17;;;;;;;2.36;86.57;100199.94;5077161;28;20036;-66
2023/12/28 05:36:36;;;;;;;0.47;0.47;;;;;;;2.38;85.98;100205.91;5076798;28;20083;-66
2023/12/28 05:39:05;;;;;;;0.80;0.80;;;;;;;2.44;86.43;100207.81;5075648;28;20494;-67
2023/12/28 05:41:34;;;;;;;2.45;1.52;;;;;;;2.49;86.63;100216.41;5076728;28;20056;-66
2023/12/28 05:44:03;;;;;;;1.47;1.00;;;;;;;2.45;87.26;100224.63;5075754;28;20482;-65
2023/12/28 05:46:33;;;;;;;0.80;0.80;;;;;;;2.37;86.38;100206.72;5076979;28;20098;-67
2023/12/28 05:49:02;;;;;;;0.50;0.50;;;;;;;2.34;87.04;100215.81;5076966;28;20048;-67
2023/12/28 05:51:38;;;;;;;0.90;0.90;;;;;;;2.27;86.19;100218.88;5077080;28;20044;-66
2023/12/28 05:54:07;;;;;;;1.02;1.02;;;;;;;2.25;86.65;100221.34;5076789;28;20040;-67
2023/12/28 05:56:37;;;;;;;3.67;2.22;;;;;;;2.25;86.92;100211.25;5076492;28;20041;-67
2023/12/28 05:59:06;;;;;;;1.37;1.27;;;;;;;2.18;86.26;100214.34;5076705;28;20039;-68
2023/12/28 06:01:44;;;;;;;1.42;1.33;;;;;;;2.16;86.81;100215.91;5076593;28;20365;-66
2023/12/28 06:04:13;;;;;;;4.18;2.40;;;;;;;2.10;85.84;100225.72;5075121;28;20512;-66
2023/12/28 06:06:42;;;;;;;2.97;2.60;;;;;;;2.01;86.46;100211.13;5075421;28;20128;-68
2023/12/28 06:09:11;;;;;;;8.93;2.17;;;;;;;2.01;86.32;100210.25;5075566;28;20041;-68
2023/12/28 06:11:40;;;;;;;;;;;;;;;2.01;85.92;100200.19;5075478;28;20051;-66
2023/12/28 06:14:09;;;;;;;2.47;2.03;;;;;;;1.99;86.61;100211.84;5075274;28;19926;-68
2023/12/28 06:16:38;;;;;;;3.10;2.80;;;;;;;2.01;86.44;100211.13;5074978;28;20041;-67
2023/12/28 06:19:09;;;;;;;1.30;1.20;;;;;;;1.91;86.17;100208.16;5074573;28;20280;-66
2023/12/28 06:21:39;;;;;;;2.30;2.10;;;;;;;1.91;86.22;100203.13;5075332;28;20338;-67
2023/12/28 06:24:07;;;;;;;1.90;1.80;;;;;;;1.89;86.75;100207.22;5075130;28;20045;-66
2023/12/28 06:26:41;;;;;;;1.73;1.50;;;;;;;1.78;85.95;100203.38;5075106;28;20080;-67
2023/12/28 06:29:10;;;;;;;2.97;2.75;;;;;;;1.85;86.72;100197.81;5075511;28;20115;-66
2023/12/28 06:31:39;;;;;;;3.92;1.63;;;;;;;1.93;86.51;100204.03;5074651;28;20051;-68
2023/12/28 06:34:10;;;;;;;1.40;1.30;;;;;;;1.87;86.87;100211.34;5074916;28;20045;-67
2023/12/28 06:36:39;;;;;;;0.75;0.75;;;;;;;1.81;86.06;100201.00;5075079;28;20131;-66
2023/12/28 06:39:08;;;;;;;1.48;1.38;;;;;;;1.74;86.52;100199.03;5074683;28;20048;-67
2023/12/28 06:41:37;;;;;;;0.70;0.70;;;;;;;1.70;86.93;100202.22;5074545;28;20425;-66
2023/12/28 06:44:06;;;;;;;3.47;1.53;;;;;;;1.68;86.80;100206.34;5074677;28;20035;-68
2023/12/28 06:46:35;;;;;;;0.73;0.73;;;;;;;1.68;86.69;100202.13;5074820;28;20052;-66
2023/12/28 06:49:05;;;;;;;0.68;0.68;;;;;;;1.80;87.20;100222.78;5074718;28;20072;-68
2023/12/28 06:51:42;;;;;;;0.90;0.90;;;;;;;1.79;86.49;100222.72;5074926;28;20048;-68
2023/12/28 06:54:11;;;;;;;0.40;0.40;;;;;;;1.73;86.73;100217.41;5074288;28;20150;-67
2023/12/28 06:56:40;;;;;;;0.75;0.75;;;;;;;1.76;87.02;100217.56;5074360;28;20491;-67
2023/12/28 06:59:11;;;;;;;1.85;1.75;;;;;;;1.76;86.55;100227.63;5072844;28;20468;-69
2023/12/28 07:04:25;;;;;;;2.17;1.20;;;;;;;1.77;87.02;100234.38;5132781;27;20368;-68
2023/12/28 07:06:54;;;;;;;1.25;1.17;;;;;;;1.80;86.54;100219.44;5130940;28;20443;-67
2023/12/28 07:09:23;;;;;;;1.02;1.00;;;;;;;1.92;87.30;100224.97;5131753;28;20039;-67
2023/12/28 07:11:52;;;;;;;0.68;0.68;;;;;;;1.98;87.13;100227.75;5132191;27;20067;-67
2023/12/28 07:14:21;;;;;;;3.38;1.85;;;;;;;1.95;87.41;100235.16;5132207;28;20043;-67
2023/12/28 07:16:50;;;;;;;1.35;1.25;;;;;;;2.06;87.00;100238.13;5131720;28;20039;-67
2023/12/28 07:19:18;;;;;;;2.63;1.80;;;;;;;2.33;86.72;100250.19;5131949;28;20035;-69
2023/12/28 07:21:49;;;;;;;0.73;0.73;;;;;;;2.65;87.20;100236.38;5131581;28;20092;-67
2023/12/28 07:24:18;;;;;;;0.45;0.45;;;;;;;3.18;87.74;100251.03;5130371;28;20548;-68
2023/12/28 07:26:47;;;;;;;1.87;1.77;;;;;;;3.35;87.16;100250.88;5129703;28;20043;-67
2023/12/28 07:29:15;;;;;;;0.85;0.85;;;;;;;3.47;86.44;100237.84;5131501;27;20303;-67
2023/12/28 07:31:44;;;;;;;1.80;1.17;;;;;;;3.52;86.02;100241.41;5131711;28;20070;-66
2023/12/28 07:34:13;;;;;;;0.75;0.70;;;;;;;3.74;85.85;100228.72;5131517;28;20043;-67
2023/12/28 07:36:43;;;;;;;0.77;0.77;;;;;;;3.92;85.39;100236.06;5131566;28;20505;-66
2023/12/28 07:39:14;;;;;;;1.17;1.10;;;;;;;3.81;84.76;100240.78;5131350;27;20668;-65
2023/12/28 07:41:43;;;;;;;0.65;0.65;;;;;;;3.84;84.22;100235.81;5131518;28;20082;-66
2023/12/28 07:44:12;;;;;;;15.67;3.37;;;;;;;3.95;84.55;100228.63;5129964;28;20036;-65
2023/12/28 07:46:41;;;;;;;1.20;1.10;;;;;;;3.97;84.53;100237.97;5131155;28;20035;-66
2023/12/28 07:49:10;;;;;;;1.75;1.65;;;;;;;4.02;84.03;100230.53;5131371;28;20041;-65
2023/12/28 07:51:39;;;;;;;1.10;1.10;;;;;;;4.13;83.97;100244.38;5131617;27;20031;-65
2023/12/28 07:54:07;;;;;;;0.70;0.70;;;;;;;4.19;84.25;100238.69;5130944;27;20043;-65
2023/12/28 07:56:38;;;;;;;1.10;1.00;;;;;;;4.27;83.76;100237.28;5131239;28;20035;-65
2023/12/28 07:59:09;;;;;;;1.13;1.02;;;;;;;4.40;83.65;100244.44;5131140;28;20083;-66
2023/12/28 08:01:37;;;;;;;0.77;0.77;;;;;;;4.58;83.95;100229.88;5129778;28;20124;-66
2023/12/28 08:04:06;;;;;;;1.40;1.30;;;;;;;4.74;84.13;100232.06;5130602;28;20043;-65
2023/12/28 08:06:35;;;;;;;2.08;1.50;;;;;;;4.82;83.53;100232.31;5131177;27;20158;-65
2023/12/28 08:09:04;;;;;;;1.37;1.27;;;;;;;4.87;83.33;100239.22;5130721;28;20431;-66
2023/12/28 08:11:34;;;;;;;0.70;0.70;;;;;;;4.93;83.29;100233.50;5130888;28;20366;-65
2023/12/28 08:14:04;;;;;;;2.28;1.63;;;;;;;5.10;83.33;100237.38;5126825;27;20124;-66
2023/12/28 08:16:34;;;;;;;6.88;1.05;;;;;;;5.19;82.90;100238.53;5117207;28;20043;-65
2023/12/28 08:19:04;;;;;;;2.28;2.05;;;;;;;5.29;83.11;100237.97;5117077;28;20405;-66
2023/12/28 08:21:33;;;;;;;;;;;;;;;5.31;82.38;100249.00;5117369;28;20047;-66
2023/12/28 08:24:01;;;;;;;4.43;3.17;;;;;;;5.34;82.07;100243.19;5116892;28;19973;-65
2023/12/28 08:26:32;;;;;;;7.72;2.63;;;;;;;5.38;82.13;100240.78;5117055;28;20043;-65
2023/12/28 08:29:01;;;;;;;4.25;2.35;;;;;;;5.49;81.97;100245.28;5116573;28;20043;-66
2023/12/28 08:31:32;;;;;;;4.05;2.67;;;;;;;5.47;81.49;100250.28;5116890;28;20051;-66
2023/12/28 08:34:01;;;;;;;2.25;2.05;;;;;;;5.48;81.52;100256.22;5116882;28;20055;-65
2023/12/28 08:36:30;;;;;;;2.20;2.03;;;;;;;5.56;81.55;100255.63;5115822;28;20398;-66
2023/12/28 08:38:59;;;;;;;1.85;1.75;;;;;;;5.76;81.44;100264.63;5116750;28;20043;-66
2023/12/28 08:41:28;;;;;;;8.27;3.03;;;;;;;5.86;80.84;100251.44;5116624;28;20043;-66
2023/12/28 08:43:56;;;;;;;1.90;1.80;;;;;;;5.79;80.55;100249.53;5116517;28;20032;-66
2023/12/28 08:46:25;;;;;;;2.50;2.10;;;;;;;5.89;80.55;100255.72;5115261;28;20044;-66
2023/12/28 08:48:56;;;;;;;1.52;1.42;;;;;;;5.95;80.88;100251.69;5116299;28;20056;-66
2023/12/28 08:51:25;;;;;;;2.28;2.08;;;;;;;6.05;80.22;100247.72;5116773;28;20157;-66
2023/12/28 08:53:54;;;;;;;8.07;3.17;;;;;;;6.12;80.20;100247.06;5116259;28;20046;-66
2023/12/28 08:56:23;;;;;;;3.80;3.10;;;;;;;6.19;80.20;100241.31;5116235;28;20028;-66
2023/12/28 08:58:54;;;;;;;2.28;2.13;;;;;;;6.30;80.14;100250.06;5116401;27;20035;-66
2023/12/28 09:01:25;;;;;;;1.45;1.35;;;;;;;6.53;80.21;100246.44;5116391;27;20115;-66
2023/12/28 09:03:56;;;;;;;2.33;1.85;;;;;;;6.58;79.60;100246.53;5097476;28;20635;-66
2023/12/28 09:06:25;;;;;;;0.95;0.88;;;;;;;6.60;79.82;100245.75;5116186;28;20051;-66
2023/12/28 09:08:54;;;;;;;2.15;1.77;;;;;;;6.64;79.14;100245.03;5115904;28;20130;-66
2023/12/28 09:11:23;;;;;;;;;;;;;;;6.74;79.03;100239.31;5115222;28;20057;-65
2023/12/28 09:13:52;;;;;;;1.35;1.25;;;;;;;6.85;79.12;100241.25;5116120;28;19926;-66
2023/12/28 09:16:21;;;;;;;0.90;0.90;;;;;;;6.94;78.77;100236.38;5116027;28;20427;-66
2023/12/28 09:18:50;;;;;;;2.43;2.23;;;;;;;7.04;78.23;100223.94;5115716;27;20435;-66
2023/12/28 09:21:20;;;;;;;1.45;1.35;;;;;;;7.12;77.73;100217.38;5115642;28;20322;-66
2023/12/28 09:23:49;;;;;;;4.65;3.70;;;;;;;7.28;78.14;100213.47;5114518;28;20047;-66
2023/12/28 09:26:18;;;;;;;2.10;1.87;;;;;;;7.30;77.35;100207.59;5114979;27;20071;-67
2023/12/28 09:28:47;;;;;;;0.63;0.63;;;;;;;7.35;77.18;100205.13;5115588;28;20035;-66
2023/12/28 09:31:16;;;;;;;3.00;2.70;;;;;;;7.41;77.17;100205.28;5114671;28;20032;-66
2023/12/28 09:33:45;;;;;;;;;;;;;;;7.61;77.07;100209.06;5115672;28;20051;-66
2023/12/28 09:36:14;;;;;;;3.25;1.88;;;;;;;7.75;77.01;100212.72;5115283;28;19923;-66
2023/12/28 09:38:45;;;;;;;1.45;1.35;;;;;;;7.68;76.05;100199.88;5115320;28;20040;-66
2023/12/28 09:41:17;;;;;;;1.95;1.83;;;;;;;7.59;76.19;100200.56;5114322;28;20043;-65
2023/12/28 09:43:55;;;;;;;1.73;1.58;;;;;;;7.69;75.90;100194.81;5115376;28;20048;-65
2023/12/28 09:46:26;;;;;;;19.55;4.88;;;;;;;7.88;75.95;100194.34;5115381;28;20043;-66
2023/12/28 09:48:56;;;;;;;;;;;;;;;8.07;75.91;100196.38;5115614;28;20544;-66
2023/12/28 09:51:26;;;;;;;1.25;1.15;;;;;;;8.03;75.83;100184.44;5115166;28;19919;-66
2023/12/28 09:53:57;;;;;;;;;;;;;;;7.89;75.84;100187.56;5115655;28;20051;-65
2023/12/28 09:56:26;;;;;;;0.95;0.68;;;;;;;7.81;76.11;100187.44;5114467;28;19965;-67
2023/12/28 09:58:58;;;;;;;3.92;2.20;;;;;;;7.83;78.02;100172.19;5114903;28;20062;-65
2023/12/28 10:01:27;;;;;;;2.72;1.65;;;;;;;7.97;77.62;100169.09;5115434;28;20550;-65
2023/12/28 10:03:56;;;;;;;2.83;1.42;;;;;;;8.10;77.40;100160.84;5114438;28;20036;-65
2023/12/28 10:06:26;;;;;;;1.08;0.98;;;;;;;8.21;77.53;100162.69;5114629;27;20084;-65
2023/12/28 10:08:56;;;;;;;3.33;2.92;;;;;;;8.22;77.15;100149.16;5114631;28;20061;-65
2023/12/28 10:11:26;;;;;;;6.13;1.80;;;;;;;8.45;76.96;100160.56;5115382;28;20436;-65
2023/12/28 10:13:55;;;;;;;1.13;1.02;;;;;;;8.64;76.34;100163.41;5114801;28;20040;-65
2023/12/28 10:16:23;;;;;;;1.63;1.00;;;;;;;8.83;76.66;100156.88;5114387;28;20134;-65
2023/12/28 10:18:52;;;;;;;2.00;1.27;;;;;;;9.00;76.04;100155.44;5113219;28;20040;-65
2023/12/28 10:21:21;;;;;;;1.50;1.40;;;;;;;9.17;75.85;100159.06;5114635;28;20383;-65
2023/12/28 10:23:50;;;;;;;3.40;3.00;;;;;;;9.36;75.08;100166.09;5114209;28;20516;-66
2023/12/28 10:26:21;;;;;;;1.80;1.67;;;;;;;9.30;74.78;100158.38;5114649;28;20512;-65
2023/12/28 10:28:58;;;;;;;1.50;1.40;;;;;;;9.47;74.07;100157.72;5114340;28;20048;-65
2023/12/28 10:31:27;;;;;;;1.75;1.50;;;;;;;9.50;74.31;100161.16;5114618;28;20047;-66
2023/12/28 10:34:00;;;;;;;0.60;0.50;;;;;;;9.69;73.76;100159.66;5114628;28;20036;-65
2023/12/28 10:36:30;;;;;;;1.77;1.67;;;;;;;9.69;73.63;100135.03;5114509;28;20126;-65
2023/12/28 10:39:04;;;;;;;0.95;0.93;;;;;;;9.90;73.23;100149.66;5114345;27;20173;-65
2023/12/28 10:41:37;;;;;;;1.60;1.15;;;;;;;9.84;71.75;100149.59;5113190;28;20053;-66
2023/12/28 10:44:07;;;;;;;2.38;0.80;;;;;;;9.77;72.46;100142.72;5114431;28;20058;-65
2023/12/28 10:46:44;;;;;;;1.83;1.67;;;;;;;9.80;72.70;100137.66;5113071;28;20164;-65
2023/12/28 10:49:17;;;;;;;1.85;1.48;;;;;;;9.80;72.36;100132.56;5115070;28;20050;-65
2023/12/28 10:51:52;;;;;;;15.73;1.98;;;;;;;9.75;72.63;100129.13;5114355;28;20071;-65
2023/12/28 10:54:34;;;;;;;1.80;1.45;;;;;;;9.75;71.75;100129.13;5113993;28;20051;-65
2023/12/28 10:57:11;;;;;;;2.75;1.95;;;;;;;9.81;72.23;100129.19;5114322;28;20051;-64
2023/12/28 10:59:52;;;;;;;2.50;2.22;;;;;;;9.89;72.26;100123.31;5113915;28;20050;-65
2023/12/28 11:02:24;;;;;;;2.90;1.85;;;;;;;10.06;72.40;100128.56;5113673;28;20055;-65
2023/12/28 11:04:56;;;;;;;1.70;1.60;;;;;;;10.12;71.92;100121.00;5112771;28;20047;-65
2023/12/28 11:07:32;;;;;;;2.78;1.67;;;;;;;10.23;71.72;100114.28;5114102;28;20051;-65
2023/12/28 11:10:04;;;;;;;0.65;0.63;;;;;;;10.28;71.92;100112.63;5113151;28;20043;-64
2023/12/28 11:12:36;;;;;;;1.50;1.13;;;;;;;10.23;70.94;100103.22;5114291;28;20074;-65
2023/12/28 11:15:07;;;;;;;1.30;1.20;;;;;;;10.32;71.32;100101.59;5114435;28;20059;-65
2023/12/28 11:17:39;;;;;;;1.38;1.27;;;;;;;10.12;71.63;100092.94;5113701;28;20125;-65
2023/12/28 11:20:09;;;;;;;;;;;;;;;10.21;71.03;100087.91;5114255;28;20123;-64
2023/12/28 11:22:40;;;;;;;1.30;1.15;;;;;;;10.25;70.84;100081.97;5114334;28;20350;-65
2023/12/28 11:25:16;;;;;;;1.42;1.33;;;;;;;10.32;70.73;100083.72;5113904;28;20444;-65
2023/12/28 11:27:47;;;;;;;2.08;1.55;;;;;;;10.44;70.38;100072.75;5114368;28;20044;-65
2023/12/28 11:30:16;;;;;;;1.15;1.02;;;;;;;10.58;70.59;100071.97;5113973;28;20055;-65
2023/12/28 11:32:45;;;;;;;1.25;1.15;;;;;;;10.71;70.69;100068.66;5112450;28;20047;-65
2023/12/28 11:35:15;;;;;;;1.70;1.60;;;;;;;10.74;70.53;100073.78;5113806;28;20046;-65
2023/12/28 11:37:48;;;;;;;2.47;2.28;;;;;;;10.86;70.32;100077.22;5113578;28;20039;-65
2023/12/28 11:40:20;;;;;;;1.90;1.15;;;;;;;10.88;70.21;100070.44;5113887;28;20401;-65
2023/12/28 11:42:51;;;;;;;1.13;1.08;;;;;;;10.97;70.08;100060.25;5113896;28;20096;-65
2023/12/28 11:45:21;;;;;;;2.92;1.80;;;;;;;11.07;70.14;100061.97;5113609;28;20072;-65
2023/12/28 11:48:00;;;;;;;2.65;2.03;;;;;;;11.12;69.72;100061.16;5113628;28;20043;-65
2023/12/28 11:50:29;;;;;;;1.40;1.30;;;;;;;11.19;68.64;100051.81;5116633;28;20043;-65
2023/12/28 11:52:58;;;;;;;3.73;1.60;;;;;;;11.18;68.79;100045.00;5117585;28;20390;-65